Welcome to Northern Hawkes Bay. New Zealand.
PWS Header
      nz Flag



Hit Counter


W3C Valid W3C Valid logo


    Wairoa

Select any of the Stations below to visit their websites.










Historic Data from Weather Underground
Select the location of interest below. Wairoa is the default. Please have patience, this Data is slow to load in.
Northern Hawkes Bay Historical Data
Daily Summary for April 17, 2018 Units:  Both    English   Metric
« Previous Day
Next Day »
Daily Weekly Monthly Yearly Custom
  High: Low: Average:
Temperature: 78.6 °F /  25.9 °C 53.4 °F /  11.9 °C 66.7 °F /  19.3 °C
Dew Point: 62.1 °F /  16.7 °C 47.7 °F /  8.7 °C 54.9 °F /  12.7 °C
Humidity: 89% 44% 67%
Wind Speed: 13.6mph /  21.9km/h - 3.8mph /  6.1km/h
Wind Gust: 22.8mph /  36.7km/h - -
Wind- - West
Pressure: 29.8 in /  1008.0 hPa 29.7 in /  1004.6 hPa -
Precipitation: 0 in /  0.0 mm    
Historical Graphs
 
 
Tabular Data for April 17, 2018
Time Temperature Dew Point Pressure Wind Wind Speed Wind Gust Humidity Rainfall Rate (Hourly) solar
00:01 58.1 °F /  14.5 °C 52 °F /  11.1 °C 29.7in /  1007.0hPa ENE 3.1mph /  5.0km/h 5.4mph /  8.7km/h 80% 0in /  0.0mm 0 W/m2
00:06 58.3 °F /  14.6 °C 51.8 °F /  11.0 °C 29.7in /  1007.0hPa ENE 3.1mph /  5.0km/h 5.4mph /  8.7km/h 79% 0in /  0.0mm 0 W/m2
00:11 59 °F /  15.0 °C 51.4 °F /  10.8 °C 29.7in /  1007.0hPa Calm   4.5mph /  7.2km/h 76% 0in /  0.0mm 0 W/m2
00:16 59.4 °F /  15.2 °C 51.1 °F /  10.6 °C 29.7in /  1007.0hPa NNE 3.8mph /  6.1km/h 6mph /  9.7km/h 74% 0in /  0.0mm 0 W/m2
00:21 60.1 °F /  15.6 °C 50.7 °F /  10.4 °C 29.7in /  1007.0hPa NNW 5.4mph /  8.7km/h 7.6mph /  12.2km/h 71% 0in /  0.0mm 0 W/m2
00:26 60.4 °F /  15.8 °C 49.8 °F /  9.9 °C 29.7in /  1006.7hPa NW 6mph /  9.7km/h 9.8mph /  15.8km/h 68% 0in /  0.0mm 0 W/m2
00:31 60.8 °F /  16.0 °C 48.9 °F /  9.4 °C 29.7in /  1007.0hPa NW 6mph /  9.7km/h 10.7mph /  17.2km/h 65% 0in /  0.0mm 0 W/m2
00:36 61.2 °F /  16.2 °C 48.9 °F /  9.4 °C 29.7in /  1007.0hPa NNW 3.1mph /  5.0km/h 10.7mph /  17.2km/h 64% 0in /  0.0mm 0 W/m2
00:41 61.3 °F /  16.3 °C 49.1 °F /  9.5 °C 29.7in /  1007.0hPa NNW 3.1mph /  5.0km/h 9.8mph /  15.8km/h 64% 0in /  0.0mm 0 W/m2
00:46 61.2 °F /  16.2 °C 48.9 °F /  9.4 °C 29.7in /  1007.3hPa NNW 4.5mph /  7.2km/h 9.8mph /  15.8km/h 64% 0in /  0.0mm 0 W/m2
00:51 61 °F /  16.1 °C 48.7 °F /  9.3 °C 29.7in /  1007.3hPa North 1.6mph /  2.6km/h 9.8mph /  15.8km/h 64% 0in /  0.0mm 0 W/m2
00:56 60.8 °F /  16.0 °C 48.6 °F /  9.2 °C 29.7in /  1007.3hPa NNW 3.1mph /  5.0km/h 9.2mph /  14.8km/h 64% 0in /  0.0mm 0 W/m2
01:01 60.6 °F /  15.9 °C 48.7 °F /  9.3 °C 29.7in /  1007.3hPa NNW 3.1mph /  5.0km/h 6mph /  9.7km/h 65% 0in /  0.0mm 0 W/m2
01:06 60.3 °F /  15.7 °C 48.9 °F /  9.4 °C 29.7in /  1007.3hPa NNW 5.4mph /  8.7km/h 9.2mph /  14.8km/h 66% 0in /  0.0mm 0 W/m2
01:11 60.3 °F /  15.7 °C 48.9 °F /  9.4 °C 29.7in /  1007.3hPa NNW 3.8mph /  6.1km/h 9.2mph /  14.8km/h 66% 0in /  0.0mm 0 W/m2
01:16 60.4 °F /  15.8 °C 48.9 °F /  9.4 °C 29.7in /  1007.3hPa NNW 5.4mph /  8.7km/h 9.8mph /  15.8km/h 66% 0in /  0.0mm 0 W/m2
01:21 60.8 °F /  16.0 °C 48.6 °F /  9.2 °C 29.7in /  1007.3hPa NNW 4.5mph /  7.2km/h 11.4mph /  18.3km/h 64% 0in /  0.0mm 0 W/m2
01:26 60.8 °F /  16.0 °C 48 °F /  8.9 °C 29.7in /  1007.3hPa NNW 6mph /  9.7km/h 11.4mph /  18.3km/h 63% 0in /  0.0mm 0 W/m2
01:31 60.6 °F /  15.9 °C 48.4 °F /  9.1 °C 29.8in /  1007.7hPa NNW 6mph /  9.7km/h 9.8mph /  15.8km/h 64% 0in /  0.0mm 0 W/m2
01:36 60.6 °F /  15.9 °C 48.4 °F /  9.1 °C 29.8in /  1007.7hPa NNW 3.8mph /  6.1km/h 9.8mph /  15.8km/h 64% 0in /  0.0mm 0 W/m2
01:41 60.6 °F /  15.9 °C 48.4 °F /  9.1 °C 29.8in /  1007.7hPa North 6.9mph /  11.1km/h 10.7mph /  17.2km/h 64% 0in /  0.0mm 0 W/m2
01:46 60.8 °F /  16.0 °C 47.7 °F /  8.7 °C 29.8in /  1007.7hPa NNW 10.7mph /  17.2km/h 15.2mph /  24.5km/h 62% 0in /  0.0mm 0 W/m2
01:51 60.8 °F /  16.0 °C 47.7 °F /  8.7 °C 29.8in /  1007.7hPa NNW 11.4mph /  18.3km/h 15.2mph /  24.5km/h 62% 0in /  0.0mm 0 W/m2
01:56 61 °F /  16.1 °C 48.4 °F /  9.1 °C 29.8in /  1007.7hPa NW 6.9mph /  11.1km/h 16.8mph /  27.0km/h 63% 0in /  0.0mm 0 W/m2
02:01 60.8 °F /  16.0 °C 48 °F /  8.9 °C 29.8in /  1007.7hPa NW 9.2mph /  14.8km/h 16.8mph /  27.0km/h 63% 0in /  0.0mm 0 W/m2
02:06 60.6 °F /  15.9 °C 48.7 °F /  9.3 °C 29.8in /  1007.7hPa NNW 6mph /  9.7km/h 13mph /  20.9km/h 65% 0in /  0.0mm 0 W/m2
02:11 60.6 °F /  15.9 °C 48.7 °F /  9.3 °C 29.8in /  1007.7hPa North 6mph /  9.7km/h 12.1mph /  19.5km/h 65% 0in /  0.0mm 0 W/m2
02:16 60.4 °F /  15.8 °C 48.9 °F /  9.4 °C 29.7in /  1007.3hPa NNW 4.5mph /  7.2km/h 10.7mph /  17.2km/h 66% 0in /  0.0mm 0 W/m2
02:21 60.1 °F /  15.6 °C 49.1 °F /  9.5 °C 29.7in /  1007.3hPa NW 7.6mph /  12.2km/h 13mph /  20.9km/h 67% 0in /  0.0mm 0 W/m2
02:26 60.3 °F /  15.7 °C 49.3 °F /  9.6 °C 29.7in /  1007.3hPa NNW 9.2mph /  14.8km/h 13mph /  20.9km/h 67% 0in /  0.0mm 0 W/m2
02:31 59.9 °F /  15.5 °C 49.3 °F /  9.6 °C 29.7in /  1007.3hPa NNW 4.5mph /  7.2km/h 12.1mph /  19.5km/h 68% 0in /  0.0mm 0 W/m2
02:36 59.7 °F /  15.4 °C 49.5 °F /  9.7 °C 29.8in /  1007.7hPa North 3.8mph /  6.1km/h 12.1mph /  19.5km/h 69% 0in /  0.0mm 0 W/m2
02:41 59.7 °F /  15.4 °C 49.5 °F /  9.7 °C 29.7in /  1007.3hPa North 3.1mph /  5.0km/h 9.2mph /  14.8km/h 69% 0in /  0.0mm 0 W/m2
02:46 59.9 °F /  15.5 °C 49.6 °F /  9.8 °C 29.7in /  1007.3hPa North 2.2mph /  3.5km/h 9.2mph /  14.8km/h 69% 0in /  0.0mm 0 W/m2
02:51 59.7 °F /  15.4 °C 49.5 °F /  9.7 °C 29.8in /  1007.7hPa North 0.7mph /  1.1km/h 6.9mph /  11.1km/h 69% 0in /  0.0mm 0 W/m2
02:56 59.5 °F /  15.3 °C 49.8 °F /  9.9 °C 29.7in /  1007.3hPa NNE 3.1mph /  5.0km/h 7.6mph /  12.2km/h 70% 0in /  0.0mm 0 W/m2
03:01 59.4 °F /  15.2 °C 49.6 °F /  9.8 °C 29.7in /  1007.3hPa North 3.8mph /  6.1km/h 7.6mph /  12.2km/h 70% 0in /  0.0mm 0 W/m2
03:06 59.2 °F /  15.1 °C 49.8 °F /  9.9 °C 29.7in /  1007.3hPa North 4.5mph /  7.2km/h 8.3mph /  13.4km/h 71% 0in /  0.0mm 0 W/m2
03:11 59 °F /  15.0 °C 50 °F /  10.0 °C 29.7in /  1007.3hPa North 3.8mph /  6.1km/h 8.3mph /  13.4km/h 72% 0in /  0.0mm 0 W/m2
03:16 59.4 °F /  15.2 °C 50.4 °F /  10.2 °C 29.7in /  1007.3hPa North 3.1mph /  5.0km/h 8.3mph /  13.4km/h 72% 0in /  0.0mm 0 W/m2
03:21 59.2 °F /  15.1 °C 50.2 °F /  10.1 °C 29.7in /  1007.3hPa Calm   8.3mph /  13.4km/h 72% 0in /  0.0mm 0 W/m2
03:26 59.2 °F /  15.1 °C 50.5 °F /  10.3 °C 29.7in /  1007.3hPa North 2.2mph /  3.5km/h 5.4mph /  8.7km/h 73% 0in /  0.0mm 0 W/m2
03:31 59.2 °F /  15.1 °C 50.5 °F /  10.3 °C 29.7in /  1007.3hPa NNW 4.5mph /  7.2km/h 6mph /  9.7km/h 73% 0in /  0.0mm 0 W/m2
03:36 59.4 °F /  15.2 °C 50.7 °F /  10.4 °C 29.7in /  1007.3hPa NNW 3.8mph /  6.1km/h 8.3mph /  13.4km/h 73% 0in /  0.0mm 0 W/m2
03:41 59.4 °F /  15.2 °C 50.7 °F /  10.4 °C 29.7in /  1007.3hPa NNW 3.8mph /  6.1km/h 9.2mph /  14.8km/h 73% 0in /  0.0mm 0 W/m2
03:46 59.4 °F /  15.2 °C 50.7 °F /  10.4 °C 29.7in /  1007.3hPa NNW 2.2mph /  3.5km/h 9.2mph /  14.8km/h 73% 0in /  0.0mm 0 W/m2
03:51 59.4 °F /  15.2 °C 50.7 °F /  10.4 °C 29.7in /  1007.0hPa Calm   9.2mph /  14.8km/h 73% 0in /  0.0mm 0 W/m2
03:56 59 °F /  15.0 °C 50.4 °F /  10.2 °C 29.7in /  1007.3hPa Calm   8.3mph /  13.4km/h 73% 0in /  0.0mm 0 W/m2
04:01 58.8 °F /  14.9 °C 50.9 °F /  10.5 °C 29.7in /  1007.3hPa Calm   2.2mph /  3.5km/h 75% 0in /  0.0mm 0 W/m2
04:06 58.8 °F /  14.9 °C 50.9 °F /  10.5 °C 29.7in /  1007.3hPa Calm   2.2mph /  3.5km/h 75% 0in /  0.0mm 0 W/m2
04:11 58.5 °F /  14.7 °C 50.5 °F /  10.3 °C 29.7in /  1007.0hPa Calm   0.7mph /  1.1km/h 75% 0in /  0.0mm 0 W/m2
04:16 58.1 °F /  14.5 °C 50.2 °F /  10.1 °C 29.7in /  1007.3hPa Calm   0.7mph /  1.1km/h 75% 0in /  0.0mm 0 W/m2
04:21 57.7 °F /  14.3 °C 50.2 °F /  10.1 °C 29.7in /  1007.0hPa Calm   0.7mph /  1.1km/h 76% 0in /  0.0mm 0 W/m2
04:26 57.4 °F /  14.1 °C 49.8 °F /  9.9 °C 29.7in /  1007.3hPa Calm     76% 0in /  0.0mm 0 W/m2
04:31 56.7 °F /  13.7 °C 49.5 °F /  9.7 °C 29.7in /  1007.3hPa Calm     77% 0in /  0.0mm 0 W/m2
04:36 56.5 °F /  13.6 °C 49.6 °F /  9.8 °C 29.7in /  1007.0hPa Calm   0.7mph /  1.1km/h 78% 0in /  0.0mm 0 W/m2
04:41 56.5 °F /  13.6 °C 50.2 °F /  10.1 °C 29.7in /  1007.3hPa Calm   0.7mph /  1.1km/h 79% 0in /  0.0mm 0 W/m2
04:46 56.1 °F /  13.4 °C 50 °F /  10.0 °C 29.7in /  1007.3hPa Calm     80% 0in /  0.0mm 0 W/m2
04:51 56.1 °F /  13.4 °C 50 °F /  10.0 °C 29.7in /  1007.3hPa Calm     80% 0in /  0.0mm 0 W/m2
04:56 56.1 °F /  13.4 °C 50 °F /  10.0 °C 29.7in /  1007.3hPa Calm     80% 0in /  0.0mm 0 W/m2
05:01 56.1 °F /  13.4 °C 50.4 °F /  10.2 °C 29.7in /  1007.3hPa Calm   1.6mph /  2.6km/h 81% 0in /  0.0mm 0 W/m2
05:06 56.1 °F /  13.4 °C 50.7 °F /  10.4 °C 29.7in /  1007.3hPa Calm   1.6mph /  2.6km/h 82% 0in /  0.0mm 0 W/m2
05:11 56.5 °F /  13.6 °C 51.1 °F /  10.6 °C 29.7in /  1007.3hPa ENE 0.7mph /  1.1km/h 4.5mph /  7.2km/h 82% 0in /  0.0mm 0 W/m2
05:16 57.2 °F /  14.0 °C 51.4 °F /  10.8 °C 29.7in /  1007.0hPa Calm   4.5mph /  7.2km/h 81% 0in /  0.0mm 0 W/m2
05:21 57.4 °F /  14.1 °C 51.3 °F /  10.7 °C 29.7in /  1007.3hPa Calm   3.1mph /  5.0km/h 80% 0in /  0.0mm 0 W/m2
05:26 57.2 °F /  14.0 °C 50.7 °F /  10.4 °C 29.7in /  1007.3hPa Calm   3.1mph /  5.0km/h 79% 0in /  0.0mm 0 W/m2
05:31 56.5 °F /  13.6 °C 50.4 °F /  10.2 °C 29.7in /  1007.0hPa Calm   0.7mph /  1.1km/h 80% 0in /  0.0mm 0 W/m2
05:36 56.1 °F /  13.4 °C 50 °F /  10.0 °C 29.7in /  1007.3hPa Calm   0.7mph /  1.1km/h 80% 0in /  0.0mm 0 W/m2
05:41 55.8 °F /  13.2 °C 50 °F /  10.0 °C 29.7in /  1007.3hPa Calm   0.7mph /  1.1km/h 81% 0in /  0.0mm 0 W/m2
05:46 55.4 °F /  13.0 °C 49.6 °F /  9.8 °C 29.7in /  1007.3hPa NW 1.6mph /  2.6km/h 2.2mph /  3.5km/h 81% 0in /  0.0mm 0 W/m2
05:51 54.7 °F /  12.6 °C 49.3 °F /  9.6 °C 29.7in /  1007.3hPa WNW 0.7mph /  1.1km/h 4.5mph /  7.2km/h 82% 0in /  0.0mm 0 W/m2
05:56 54.7 °F /  12.6 °C 49.6 °F /  9.8 °C 29.7in /  1007.3hPa WNW 0.7mph /  1.1km/h 4.5mph /  7.2km/h 83% 0in /  0.0mm 0 W/m2
06:01 55 °F /  12.8 °C 50 °F /  10.0 °C 29.7in /  1007.0hPa NW 2.2mph /  3.5km/h 4.5mph /  7.2km/h 83% 0in /  0.0mm 0 W/m2
06:06 55.2 °F /  12.9 °C 50.2 °F /  10.1 °C 29.7in /  1007.0hPa NW 3.1mph /  5.0km/h 4.5mph /  7.2km/h 83% 0in /  0.0mm 0 W/m2
06:11 55.4 °F /  13.0 °C 50.7 °F /  10.4 °C 29.7in /  1007.0hPa NW 3.1mph /  5.0km/h 4.5mph /  7.2km/h 84% 0in /  0.0mm 0 W/m2
06:16 55.4 °F /  13.0 °C 50.7 °F /  10.4 °C 29.7in /  1007.0hPa Calm   4.5mph /  7.2km/h 84% 0in /  0.0mm 0 W/m2
06:21 54.9 °F /  12.7 °C 49.8 °F /  9.9 °C 29.7in /  1007.3hPa Calm   3.8mph /  6.1km/h 83% 0in /  0.0mm 0 W/m2
06:26 54.7 °F /  12.6 °C 49.6 °F /  9.8 °C 29.7in /  1007.3hPa Calm     83% 0in /  0.0mm 0 W/m2
06:31 54.7 °F /  12.6 °C 49.8 °F /  9.9 °C 29.7in /  1007.3hPa Calm   1.6mph /  2.6km/h 84% 0in /  0.0mm 0 W/m2
06:36 54.5 °F /  12.5 °C 49.8 °F /  9.9 °C 29.7in /  1007.0hPa Calm   1.6mph /  2.6km/h 84% 0in /  0.0mm 0 W/m2
06:41 54.1 °F /  12.3 °C 49.5 °F /  9.7 °C 29.7in /  1007.0hPa Calm   0.7mph /  1.1km/h 84% 0in /  0.0mm 2 W/m2
06:46 53.8 °F /  12.1 °C 49.1 °F /  9.5 °C 29.7in /  1007.3hPa Calm     84% 0in /  0.0mm 4 W/m2
06:51 53.4 °F /  11.9 °C 48.9 °F /  9.4 °C 29.7in /  1007.3hPa Calm     85% 0in /  0.0mm 7 W/m2
06:56 53.6 °F /  12.0 °C 49.3 °F /  9.6 °C 29.7in /  1007.3hPa Calm   0.7mph /  1.1km/h 85% 0in /  0.0mm 11 W/m2
07:01 54 °F /  12.2 °C 49.8 °F /  9.9 °C 29.7in /  1007.3hPa ENE 1.6mph /  2.6km/h 6mph /  9.7km/h 86% 0in /  0.0mm 17 W/m2
07:06 55.6 °F /  13.1 °C 51.4 °F /  10.8 °C 29.7in /  1007.3hPa ENE 3.1mph /  5.0km/h 6mph /  9.7km/h 86% 0in /  0.0mm 56 W/m2
07:11 57.4 °F /  14.1 °C 52.5 °F /  11.4 °C 29.7in /  1007.3hPa Calm   5.4mph /  8.7km/h 84% 0in /  0.0mm 70 W/m2
07:16 59 °F /  15.0 °C 52.9 °F /  11.6 °C 29.7in /  1007.3hPa Calm   4.5mph /  7.2km/h 80% 0in /  0.0mm 83 W/m2
07:21 59.4 °F /  15.2 °C 52.2 °F /  11.2 °C 29.7in /  1007.3hPa Calm   3.1mph /  5.0km/h 77% 0in /  0.0mm 94 W/m2
07:26 58.8 °F /  14.9 °C 51.6 °F /  10.9 °C 29.7in /  1007.0hPa NW 1.6mph /  2.6km/h 3.8mph /  6.1km/h 77% 0in /  0.0mm 105 W/m2
07:31 58.3 °F /  14.6 °C 51.4 °F /  10.8 °C 29.7in /  1007.0hPa NW 3.8mph /  6.1km/h 4.5mph /  7.2km/h 78% 0in /  0.0mm 115 W/m2
07:36 57.9 °F /  14.4 °C 51.8 °F /  11.0 °C 29.7in /  1007.3hPa NW 3.8mph /  6.1km/h 6mph /  9.7km/h 80% 0in /  0.0mm 125 W/m2
07:41 57.7 °F /  14.3 °C 51.6 °F /  10.9 °C 29.7in /  1007.3hPa NW 3.1mph /  5.0km/h 7.6mph /  12.2km/h 80% 0in /  0.0mm 136 W/m2
07:46 57.9 °F /  14.4 °C 52.2 °F /  11.2 °C 29.7in /  1007.3hPa NW 3.1mph /  5.0km/h 8.3mph /  13.4km/h 81% 0in /  0.0mm 147 W/m2
07:51 58.5 °F /  14.7 °C 52.7 °F /  11.5 °C 29.7in /  1007.3hPa NW 1.6mph /  2.6km/h 8.3mph /  13.4km/h 81% 0in /  0.0mm 157 W/m2
07:56 59.4 °F /  15.2 °C 52.9 °F /  11.6 °C 29.7in /  1007.3hPa Calm   5.4mph /  8.7km/h 79% 0in /  0.0mm 167 W/m2
08:01 60.4 °F /  15.8 °C 54 °F /  12.2 °C 29.7in /  1007.3hPa Calm   3.8mph /  6.1km/h 79% 0in /  0.0mm 179 W/m2
08:06 61.3 °F /  16.3 °C 53.8 °F /  12.1 °C 29.8in /  1007.7hPa Calm   3.8mph /  6.1km/h 76% 0in /  0.0mm 191 W/m2
08:11 63 °F /  17.2 °C 54.7 °F /  12.6 °C 29.8in /  1007.7hPa Calm   3.8mph /  6.1km/h 74% 0in /  0.0mm 202 W/m2
08:16 64.6 °F /  18.1 °C 55.8 °F /  13.2 °C 29.8in /  1007.7hPa Calm   1.6mph /  2.6km/h 73% 0in /  0.0mm 216 W/m2
08:21 66.2 °F /  19.0 °C 55.2 °F /  12.9 °C 29.8in /  1007.7hPa Calm   1.6mph /  2.6km/h 68% 0in /  0.0mm 232 W/m2
08:26 66.7 °F /  19.3 °C 55 °F /  12.8 °C 29.8in /  1008.0hPa Calm   1.6mph /  2.6km/h 66% 0in /  0.0mm 243 W/m2
08:31 67.5 °F /  19.7 °C 55.8 °F /  13.2 °C 29.8in /  1008.0hPa Calm   1.6mph /  2.6km/h 66% 0in /  0.0mm 257 W/m2
08:36 69.3 °F /  20.7 °C 56.7 °F /  13.7 °C 29.8in /  1008.0hPa Calm     64% 0in /  0.0mm 271 W/m2
08:41 71.1 °F /  21.7 °C 57.4 °F /  14.1 °C 29.8in /  1008.0hPa Calm   0.7mph /  1.1km/h 62% 0in /  0.0mm 284 W/m2
08:46 72.1 °F /  22.3 °C 55.6 °F /  13.1 °C 29.8in /  1008.0hPa Calm   0.7mph /  1.1km/h 56% 0in /  0.0mm 293 W/m2
08:51 72.7 °F /  22.6 °C 54.7 °F /  12.6 °C 29.8in /  1008.0hPa NE 0.7mph /  1.1km/h 3.1mph /  5.0km/h 53% 0in /  0.0mm 302 W/m2
08:54 72.7 °F /  22.6 °C 54.7 °F /  12.6 °C 29.8in /  1007.7hPa NNE 0.7mph /  1.1km/h 4.5mph /  7.2km/h 53% 0in /  0.0mm 305 W/m2
08:59 72.3 °F /  22.4 °C 53.8 °F /  12.1 °C 29.8in /  1007.7hPa NNE 1.6mph /  2.6km/h 6mph /  9.7km/h 52% 0in /  0.0mm 311 W/m2
09:04 71.8 °F /  22.1 °C 53.2 °F /  11.8 °C 29.8in /  1007.7hPa NNE 2.2mph /  3.5km/h 6mph /  9.7km/h 52% 0in /  0.0mm 316 W/m2
09:09 71.4 °F /  21.9 °C 54 °F /  12.2 °C 29.8in /  1008.0hPa Calm   4.5mph /  7.2km/h 54% 0in /  0.0mm 320 W/m2
09:14 72.7 °F /  22.6 °C 54.7 °F /  12.6 °C 29.8in /  1008.0hPa NNE 1.6mph /  2.6km/h 4.5mph /  7.2km/h 53% 0in /  0.0mm 325 W/m2
09:19 73.2 °F /  22.9 °C 54.7 °F /  12.6 °C 29.8in /  1008.0hPa Calm   4.5mph /  7.2km/h 52% 0in /  0.0mm 330 W/m2
09:24 73 °F /  22.8 °C 54 °F /  12.2 °C 29.8in /  1008.0hPa North 2.2mph /  3.5km/h 4.5mph /  7.2km/h 51% 0in /  0.0mm 330 W/m2
09:43 73.2 °F /  22.9 °C 55 °F /  12.8 °C 29.8in /  1007.7hPa North 2.2mph /  3.5km/h 8.3mph /  13.4km/h 53% 0in /  0.0mm 79 W/m2
09:48 73 °F /  22.8 °C 54.3 °F /  12.4 °C 29.8in /  1008.0hPa North 6mph /  9.7km/h 10.7mph /  17.2km/h 52% 0in /  0.0mm 71 W/m2
09:53 72.3 °F /  22.4 °C 54.3 °F /  12.4 °C 29.8in /  1007.7hPa NNW 3.1mph /  5.0km/h 10.7mph /  17.2km/h 53% 0in /  0.0mm 64 W/m2
09:58 72.7 °F /  22.6 °C 54.7 °F /  12.6 °C 29.8in /  1007.7hPa NNW 4.5mph /  7.2km/h 10.7mph /  17.2km/h 53% 0in /  0.0mm 61 W/m2
10:03 73.2 °F /  22.9 °C 55 °F /  12.8 °C 29.8in /  1007.7hPa NNW 3.1mph /  5.0km/h 9.8mph /  15.8km/h 53% 0in /  0.0mm 60 W/m2
10:08 73 °F /  22.8 °C 54.9 °F /  12.7 °C 29.8in /  1007.7hPa NNW 7.6mph /  12.2km/h 13.6mph /  21.9km/h 53% 0in /  0.0mm 58 W/m2
10:13 72.7 °F /  22.6 °C 54.7 °F /  12.6 °C 29.8in /  1007.7hPa NW 6mph /  9.7km/h 15.2mph /  24.5km/h 53% 0in /  0.0mm 58 W/m2
10:18 72.3 °F /  22.4 °C 54.9 °F /  12.7 °C 29.7in /  1007.3hPa NW 6mph /  9.7km/h 17.4mph /  28.0km/h 54% 0in /  0.0mm 59 W/m2
10:23 72.7 °F /  22.6 °C 55 °F /  12.8 °C 29.7in /  1007.3hPa NW 6mph /  9.7km/h 17.4mph /  28.0km/h 54% 0in /  0.0mm 63 W/m2
10:28 73 °F /  22.8 °C 55.9 °F /  13.3 °C 29.8in /  1007.7hPa NW 8.3mph /  13.4km/h 13.6mph /  21.9km/h 55% 0in /  0.0mm 67 W/m2
10:33 73 °F /  22.8 °C 55.4 °F /  13.0 °C 29.8in /  1007.7hPa NNW 4.5mph /  7.2km/h 12.1mph /  19.5km/h 54% 0in /  0.0mm 97 W/m2
10:38 73.6 °F /  23.1 °C 55.9 °F /  13.3 °C 29.8in /  1007.7hPa NW 12.1mph /  19.5km/h 14.5mph /  23.3km/h 54% 0in /  0.0mm 322 W/m2
10:43 73 °F /  22.8 °C 55.4 °F /  13.0 °C 29.8in /  1007.7hPa NW 6.9mph /  11.1km/h 14.5mph /  23.3km/h 54% 0in /  0.0mm 357 W/m2
10:48 72.9 °F /  22.7 °C 55.2 °F /  12.9 °C 29.7in /  1007.3hPa NNW 7.6mph /  12.2km/h 15.2mph /  24.5km/h 54% 0in /  0.0mm 352 W/m2
10:53 73.2 °F /  22.9 °C 55.6 °F /  13.1 °C 29.8in /  1007.7hPa NNW 3.8mph /  6.1km/h 15.2mph /  24.5km/h 54% 0in /  0.0mm 120 W/m2
10:58 73.9 °F /  23.3 °C 56.8 °F /  13.8 °C 29.7in /  1007.3hPa North 5.4mph /  8.7km/h 10.7mph /  17.2km/h 55% 0in /  0.0mm 145 W/m2
11:03 73.8 °F /  23.2 °C 55 °F /  12.8 °C 29.7in /  1007.3hPa North 6.9mph /  11.1km/h 11.4mph /  18.3km/h 52% 0in /  0.0mm 390 W/m2
11:08 73.6 °F /  23.1 °C 54.9 °F /  12.7 °C 29.7in /  1007.3hPa NNW 6.9mph /  11.1km/h 12.1mph /  19.5km/h 52% 0in /  0.0mm 380 W/m2
11:13 73.4 °F /  23.0 °C 54.7 °F /  12.6 °C 29.7in /  1007.3hPa NNW 7.6mph /  12.2km/h 13.6mph /  21.9km/h 52% 0in /  0.0mm 397 W/m2
11:18 73.4 °F /  23.0 °C 54.1 °F /  12.3 °C 29.7in /  1007.3hPa NNW 5.4mph /  8.7km/h 13.6mph /  21.9km/h 51% 0in /  0.0mm 398 W/m2
11:23 73.8 °F /  23.2 °C 54.5 °F /  12.5 °C 29.7in /  1007.0hPa NNW 8.3mph /  13.4km/h 15.2mph /  24.5km/h 51% 0in /  0.0mm 401 W/m2
11:28 74.1 °F /  23.4 °C 55.4 °F /  13.0 °C 29.7in /  1007.0hPa NNW 6.9mph /  11.1km/h 15.2mph /  24.5km/h 52% 0in /  0.0mm 408 W/m2
11:33 74.5 °F /  23.6 °C 54.1 °F /  12.3 °C 29.7in /  1007.0hPa NNW 4.5mph /  7.2km/h 15.2mph /  24.5km/h 49% 0in /  0.0mm 409 W/m2
11:38 74.8 °F /  23.8 °C 55 °F /  12.8 °C 29.7in /  1007.0hPa NNW 9.2mph /  14.8km/h 15.2mph /  24.5km/h 50% 0in /  0.0mm 411 W/m2
11:43 75.2 °F /  24.0 °C 55.2 °F /  12.9 °C 29.7in /  1007.0hPa NNW 9.2mph /  14.8km/h 14.5mph /  23.3km/h 50% 0in /  0.0mm 417 W/m2
11:48 75.2 °F /  24.0 °C 54.1 °F /  12.3 °C 29.7in /  1007.0hPa NNW 7.6mph /  12.2km/h 16.8mph /  27.0km/h 48% 0in /  0.0mm 419 W/m2
11:53 75.2 °F /  24.0 °C 54.1 °F /  12.3 °C 29.7in /  1006.7hPa NNW 7.6mph /  12.2km/h 16.8mph /  27.0km/h 48% 0in /  0.0mm 421 W/m2
11:58 75.2 °F /  24.0 °C 54.1 °F /  12.3 °C 29.7in /  1007.0hPa NNW 12.1mph /  19.5km/h 19mph /  30.6km/h 48% 0in /  0.0mm 416 W/m2
12:03 75 °F /  23.9 °C 54 °F /  12.2 °C 29.7in /  1006.7hPa NNW 12.1mph /  19.5km/h 19.7mph /  31.7km/h 48% 0in /  0.0mm 411 W/m2
12:08 75.2 °F /  24.0 °C 54.1 °F /  12.3 °C 29.7in /  1007.0hPa NW 9.2mph /  14.8km/h 19.7mph /  31.7km/h 48% 0in /  0.0mm 415 W/m2
12:13 75.2 °F /  24.0 °C 54.9 °F /  12.7 °C 29.7in /  1007.0hPa NW 8.3mph /  13.4km/h 18.3mph /  29.4km/h 49% 0in /  0.0mm 416 W/m2
12:18 75.2 °F /  24.0 °C 54.1 °F /  12.3 °C 29.7in /  1007.0hPa NW 13mph /  20.9km/h 19.7mph /  31.7km/h 48% 0in /  0.0mm 413 W/m2
12:23 75.9 °F /  24.4 °C 55.4 °F /  13.0 °C 29.7in /  1007.0hPa NW 9.2mph /  14.8km/h 19.7mph /  31.7km/h 49% 0in /  0.0mm 413 W/m2
12:28 75.9 °F /  24.4 °C 54.9 °F /  12.7 °C 29.7in /  1006.7hPa NW 7.6mph /  12.2km/h 19.7mph /  31.7km/h 48% 0in /  0.0mm 413 W/m2
12:33 75.9 °F /  24.4 °C 55.4 °F /  13.0 °C 29.7in /  1006.7hPa NW 5.4mph /  8.7km/h 19.7mph /  31.7km/h 49% 0in /  0.0mm 411 W/m2
12:38 76.5 °F /  24.7 °C 55.9 °F /  13.3 °C 29.7in /  1006.7hPa NW 7.6mph /  12.2km/h 16.8mph /  27.0km/h 49% 0in /  0.0mm 408 W/m2
12:43 76.6 °F /  24.8 °C 55.6 °F /  13.1 °C 29.7in /  1006.7hPa NW 6mph /  9.7km/h 13mph /  20.9km/h 48% 0in /  0.0mm 407 W/m2
12:48 76.6 °F /  24.8 °C 55.6 °F /  13.1 °C 29.7in /  1006.7hPa NNW 5.4mph /  8.7km/h 13.6mph /  21.9km/h 48% 0in /  0.0mm 404 W/m2
12:53 77 °F /  25.0 °C 55.2 °F /  12.9 °C 29.7in /  1006.7hPa NW 7.6mph /  12.2km/h 13.6mph /  21.9km/h 47% 0in /  0.0mm 405 W/m2
12:58 77.2 °F /  25.1 °C 55.4 °F /  13.0 °C 29.7in /  1006.7hPa WNW 7.6mph /  12.2km/h 13.6mph /  21.9km/h 47% 0in /  0.0mm 419 W/m2
13:03 77.4 °F /  25.2 °C 55 °F /  12.8 °C 29.7in /  1006.3hPa NW 6.9mph /  11.1km/h 13.6mph /  21.9km/h 46% 0in /  0.0mm 399 W/m2
13:08 77.2 °F /  25.1 °C 54.1 °F /  12.3 °C 29.7in /  1006.3hPa NW 9.2mph /  14.8km/h 14.5mph /  23.3km/h 45% 0in /  0.0mm 366 W/m2
13:13 77.2 °F /  25.1 °C 54.9 °F /  12.7 °C 29.7in /  1006.3hPa NW 8.3mph /  13.4km/h 14.5mph /  23.3km/h 46% 0in /  0.0mm 339 W/m2
13:18 77 °F /  25.0 °C 54.7 °F /  12.6 °C 29.7in /  1006.7hPa NW 11.4mph /  18.3km/h 18.3mph /  29.4km/h 46% 0in /  0.0mm 198 W/m2
13:23 75.9 °F /  24.4 °C 53.8 °F /  12.1 °C 29.7in /  1006.3hPa NW 6.9mph /  11.1km/h 18.3mph /  29.4km/h 46% 0in /  0.0mm 402 W/m2
13:28 77 °F /  25.0 °C 55.2 °F /  12.9 °C 29.7in /  1006.3hPa NNW 11.4mph /  18.3km/h 18.3mph /  29.4km/h 47% 0in /  0.0mm 255 W/m2
13:47 77.7 °F /  25.4 °C 54.7 °F /  12.6 °C 29.7in /  1006.0hPa NW 6.9mph /  11.1km/h 15.9mph /  25.6km/h 45% 0in /  0.0mm 269 W/m2
13:52 77.5 °F /  25.3 °C 54.7 °F /  12.6 °C 29.7in /  1006.0hPa NW 8.3mph /  13.4km/h 18.3mph /  29.4km/h 45% 0in /  0.0mm 305 W/m2
13:57 77.7 °F /  25.4 °C 54.7 °F /  12.6 °C 29.7in /  1006.0hPa NW 6.9mph /  11.1km/h 19mph /  30.6km/h 45% 0in /  0.0mm 286 W/m2
14:02 77.7 °F /  25.4 °C 54.7 °F /  12.6 °C 29.7in /  1005.6hPa NW 13mph /  20.9km/h 19.7mph /  31.7km/h 45% 0in /  0.0mm 285 W/m2
14:07 77.9 °F /  25.5 °C 55.6 °F /  13.1 °C 29.7in /  1005.6hPa NNW 9.2mph /  14.8km/h 19.7mph /  31.7km/h 46% 0in /  0.0mm 273 W/m2
14:12 77.9 °F /  25.5 °C 54.9 °F /  12.7 °C 29.7in /  1005.6hPa North 6mph /  9.7km/h 16.8mph /  27.0km/h 45% 0in /  0.0mm 232 W/m2
14:17 78.6 °F /  25.9 °C 55.6 °F /  13.1 °C 29.7in /  1006.0hPa NNW 12.1mph /  19.5km/h 16.8mph /  27.0km/h 45% 0in /  0.0mm 176 W/m2
14:22 78.6 °F /  25.9 °C 55.6 °F /  13.1 °C 29.7in /  1006.0hPa NW 7.6mph /  12.2km/h 15.2mph /  24.5km/h 45% 0in /  0.0mm 232 W/m2
14:27 77.7 °F /  25.4 °C 54.7 °F /  12.6 °C 29.7in /  1005.6hPa NNW 6.9mph /  11.1km/h 18.3mph /  29.4km/h 45% 0in /  0.0mm 156 W/m2
14:32 78.1 °F /  25.6 °C 55 °F /  12.8 °C 29.7in /  1005.6hPa NNW 3.1mph /  5.0km/h 18.3mph /  29.4km/h 45% 0in /  0.0mm 154 W/m2
14:37 77.7 °F /  25.4 °C 54.1 °F /  12.3 °C 29.7in /  1005.6hPa NNW 12.1mph /  19.5km/h 22.8mph /  36.7km/h 44% 0in /  0.0mm 128 W/m2
14:42 76.3 °F /  24.6 °C 55.2 °F /  12.9 °C 29.7in /  1005.6hPa NW 9.8mph /  15.8km/h 22.8mph /  36.7km/h 48% 0in /  0.0mm 133 W/m2
14:47 75.4 °F /  24.1 °C 53.8 °F /  12.1 °C 29.7in /  1005.6hPa NW 9.2mph /  14.8km/h 17.4mph /  28.0km/h 47% 0in /  0.0mm 124 W/m2
14:52 76.3 °F /  24.6 °C 55.8 °F /  13.2 °C 29.7in /  1005.6hPa NW 11.4mph /  18.3km/h 15.9mph /  25.6km/h 49% 0in /  0.0mm 119 W/m2
14:57 77.2 °F /  25.1 °C 55.9 °F /  13.3 °C 29.7in /  1005.6hPa NNW 7.6mph /  12.2km/h 18.3mph /  29.4km/h 48% 0in /  0.0mm 110 W/m2
15:02 77.7 °F /  25.4 °C 55.9 °F /  13.3 °C 29.7in /  1005.6hPa NW 9.8mph /  15.8km/h 18.3mph /  29.4km/h 47% 0in /  0.0mm 117 W/m2
15:07 77.9 °F /  25.5 °C 56.1 °F /  13.4 °C 29.7in /  1005.6hPa NNW 6.9mph /  11.1km/h 15.9mph /  25.6km/h 47% 0in /  0.0mm 193 W/m2
15:12 77 °F /  25.0 °C 55.8 °F /  13.2 °C 29.7in /  1005.6hPa NNW 6mph /  9.7km/h 15.2mph /  24.5km/h 48% 0in /  0.0mm 188 W/m2
15:17 75.4 °F /  24.1 °C 55.6 °F /  13.1 °C 29.7in /  1006.0hPa North 3.8mph /  6.1km/h 15.2mph /  24.5km/h 50% 0in /  0.0mm 81 W/m2
15:22 74.3 °F /  23.5 °C 56.7 °F /  13.7 °C 29.7in /  1006.0hPa North 7.6mph /  12.2km/h 15.2mph /  24.5km/h 54% 0in /  0.0mm 74 W/m2
15:27 73.6 °F /  23.1 °C 56.8 °F /  13.8 °C 29.7in /  1005.6hPa NNW 3.1mph /  5.0km/h 15.2mph /  24.5km/h 56% 0in /  0.0mm 57 W/m2
15:32 72.7 °F /  22.6 °C 57 °F /  13.9 °C 29.7in /  1005.6hPa NNW 4.5mph /  7.2km/h 10.7mph /  17.2km/h 58% 0in /  0.0mm 55 W/m2
15:37 72.3 °F /  22.4 °C 57.2 °F /  14.0 °C 29.7in /  1005.6hPa NNW 4.5mph /  7.2km/h 10.7mph /  17.2km/h 59% 0in /  0.0mm 44 W/m2
15:42 72 °F /  22.2 °C 56.8 °F /  13.8 °C 29.7in /  1005.6hPa North 5.4mph /  8.7km/h 9.2mph /  14.8km/h 59% 0in /  0.0mm 41 W/m2
15:47 72 °F /  22.2 °C 57.4 °F /  14.1 °C 29.7in /  1005.6hPa NNE 1.6mph /  2.6km/h 9.2mph /  14.8km/h 60% 0in /  0.0mm 36 W/m2
15:52 71.6 °F /  22.0 °C 57.6 °F /  14.2 °C 29.7in /  1005.6hPa NNE 6mph /  9.7km/h 9.2mph /  14.8km/h 61% 0in /  0.0mm 28 W/m2
15:57 71.4 °F /  21.9 °C 57.7 °F /  14.3 °C 29.7in /  1005.6hPa North 2.2mph /  3.5km/h 9.2mph /  14.8km/h 62% 0in /  0.0mm 29 W/m2
16:02 71.1 °F /  21.7 °C 57.9 °F /  14.4 °C 29.7in /  1005.6hPa NNW 1.6mph /  2.6km/h 9.2mph /  14.8km/h 63% 0in /  0.0mm 34 W/m2
16:07 70.9 °F /  21.6 °C 58.1 °F /  14.5 °C 29.7in /  1005.6hPa NNW 2.2mph /  3.5km/h 7.6mph /  12.2km/h 64% 0in /  0.0mm 39 W/m2
16:12 70.7 °F /  21.5 °C 58.5 °F /  14.7 °C 29.7in /  1005.3hPa NNW 0.7mph /  1.1km/h 6mph /  9.7km/h 65% 0in /  0.0mm 36 W/m2
16:17 70.7 °F /  21.5 °C 57.9 °F /  14.4 °C 29.7in /  1005.3hPa North 3.8mph /  6.1km/h 6mph /  9.7km/h 64% 0in /  0.0mm 39 W/m2
16:22 70.7 °F /  21.5 °C 57.6 °F /  14.2 °C 29.7in /  1005.6hPa North 2.2mph /  3.5km/h 6mph /  9.7km/h 63% 0in /  0.0mm 37 W/m2
16:27 70.9 °F /  21.6 °C 57.7 °F /  14.3 °C 29.7in /  1005.6hPa North 0.7mph /  1.1km/h 7.6mph /  12.2km/h 63% 0in /  0.0mm 35 W/m2
16:32 70.9 °F /  21.6 °C 57.7 °F /  14.3 °C 29.7in /  1005.3hPa Calm   7.6mph /  12.2km/h 63% 0in /  0.0mm 32 W/m2
16:37 70.9 °F /  21.6 °C 57.7 °F /  14.3 °C 29.7in /  1005.3hPa Calm   4.5mph /  7.2km/h 63% 0in /  0.0mm 33 W/m2
16:42 70.7 °F /  21.5 °C 57.6 °F /  14.2 °C 29.7in /  1005.3hPa NE 0.7mph /  1.1km/h 5.4mph /  8.7km/h 63% 0in /  0.0mm 34 W/m2
16:47 71.2 °F /  21.8 °C 57.9 °F /  14.4 °C 29.7in /  1005.3hPa Calm   5.4mph /  8.7km/h 63% 0in /  0.0mm 43 W/m2
16:52 72.7 °F /  22.6 °C 58.5 °F /  14.7 °C 29.7in /  1005.0hPa NNE 2.2mph /  3.5km/h 4.5mph /  7.2km/h 61% 0in /  0.0mm 35 W/m2
16:57 72.9 °F /  22.7 °C 58.3 °F /  14.6 °C 29.7in /  1005.3hPa NNE 3.8mph /  6.1km/h 5.4mph /  8.7km/h 60% 0in /  0.0mm 36 W/m2
17:02 73.4 °F /  23.0 °C 58.3 °F /  14.6 °C 29.7in /  1005.0hPa NE 2.2mph /  3.5km/h 5.4mph /  8.7km/h 59% 0in /  0.0mm 29 W/m2
17:07 73.9 °F /  23.3 °C 57.7 °F /  14.3 °C 29.7in /  1005.0hPa Calm   5.4mph /  8.7km/h 57% 0in /  0.0mm 24 W/m2
17:12 73.9 °F /  23.3 °C 57.7 °F /  14.3 °C 29.7in /  1005.0hPa NE 3.1mph /  5.0km/h 6mph /  9.7km/h 57% 0in /  0.0mm 16 W/m2
17:17 72.7 °F /  22.6 °C 57.9 °F /  14.4 °C 29.7in /  1004.6hPa NNE 4.5mph /  7.2km/h 7.6mph /  12.2km/h 60% 0in /  0.0mm 18 W/m2
17:22 71.6 °F /  22.0 °C 57.6 °F /  14.2 °C 29.7in /  1005.0hPa North 2.2mph /  3.5km/h 8.3mph /  13.4km/h 61% 0in /  0.0mm 16 W/m2
17:27 71.1 °F /  21.7 °C 58.3 °F /  14.6 °C 29.7in /  1005.0hPa North 7.6mph /  12.2km/h 12.1mph /  19.5km/h 64% 0in /  0.0mm 9 W/m2
17:32 70.7 °F /  21.5 °C 57.9 °F /  14.4 °C 29.7in /  1005.0hPa NNW 8.3mph /  13.4km/h 13mph /  20.9km/h 64% 0in /  0.0mm 4 W/m2
17:37 70.7 °F /  21.5 °C 57.9 °F /  14.4 °C 29.7in /  1004.6hPa North 6.9mph /  11.1km/h 13.6mph /  21.9km/h 64% 0in /  0.0mm 1 W/m2
17:42 70.9 °F /  21.6 °C 57.7 °F /  14.3 °C 29.7in /  1005.0hPa North 6.9mph /  11.1km/h 14.5mph /  23.3km/h 63% 0in /  0.0mm 0 W/m2
17:47 70.9 °F /  21.6 °C 57.2 °F /  14.0 °C 29.7in /  1005.0hPa North 5.4mph /  8.7km/h 15.2mph /  24.5km/h 62% 0in /  0.0mm 0 W/m2
17:52 70.7 °F /  21.5 °C 57.6 °F /  14.2 °C 29.7in /  1005.0hPa North 6mph /  9.7km/h 15.2mph /  24.5km/h 63% 0in /  0.0mm 0 W/m2
17:57 70.5 °F /  21.4 °C 57.4 °F /  14.1 °C 29.7in /  1005.0hPa NNW 6.9mph /  11.1km/h 14.5mph /  23.3km/h 63% 0in /  0.0mm 0 W/m2
18:02 70.5 °F /  21.4 °C 57.4 °F /  14.1 °C 29.7in /  1004.6hPa NNW 3.1mph /  5.0km/h 14.5mph /  23.3km/h 63% 0in /  0.0mm 0 W/m2
18:07 70.5 °F /  21.4 °C 57.4 °F /  14.1 °C 29.7in /  1004.6hPa North 3.8mph /  6.1km/h 13mph /  20.9km/h 63% 0in /  0.0mm 0 W/m2
18:12 70.5 °F /  21.4 °C 57.4 °F /  14.1 °C 29.7in /  1005.0hPa North 4.5mph /  7.2km/h 10.7mph /  17.2km/h 63% 0in /  0.0mm 0 W/m2
18:17 70.5 °F /  21.4 °C 57.4 °F /  14.1 °C 29.7in /  1004.6hPa North 6mph /  9.7km/h 13.6mph /  21.9km/h 63% 0in /  0.0mm 0 W/m2
18:22 70.5 °F /  21.4 °C 57.4 °F /  14.1 °C 29.7in /  1005.0hPa NNW 7.6mph /  12.2km/h 13.6mph /  21.9km/h 63% 0in /  0.0mm 0 W/m2
18:27 70.5 °F /  21.4 °C 57.4 °F /  14.1 °C 29.7in /  1005.3hPa NW 3.1mph /  5.0km/h 11.4mph /  18.3km/h 63% 0in /  0.0mm 0 W/m2
18:32 70.2 °F /  21.2 °C 57 °F /  13.9 °C 29.7in /  1005.3hPa NNW 7.6mph /  12.2km/h 11.4mph /  18.3km/h 63% 0in /  0.0mm 0 W/m2
18:37 70.2 °F /  21.2 °C 57 °F /  13.9 °C 29.7in /  1005.0hPa North 4.5mph /  7.2km/h 9.8mph /  15.8km/h 63% 0in /  0.0mm 0 W/m2
18:42 70.2 °F /  21.2 °C 57 °F /  13.9 °C 29.7in /  1005.3hPa North 3.8mph /  6.1km/h 9.8mph /  15.8km/h 63% 0in /  0.0mm 0 W/m2
18:47 70.3 °F /  21.3 °C 57.6 °F /  14.2 °C 29.7in /  1005.0hPa North 3.1mph /  5.0km/h 9.2mph /  14.8km/h 64% 0in /  0.0mm 0 W/m2
18:52 70.2 °F /  21.2 °C 57.4 °F /  14.1 °C 29.7in /  1005.0hPa North 2.2mph /  3.5km/h 6.9mph /  11.1km/h 64% 0in /  0.0mm 0 W/m2
18:57 70 °F /  21.1 °C 57.4 °F /  14.1 °C 29.7in /  1005.3hPa Calm   6.9mph /  11.1km/h 64% 0in /  0.0mm 0 W/m2
19:02 69.8 °F /  21.0 °C 57.6 °F /  14.2 °C 29.7in /  1005.3hPa North 3.8mph /  6.1km/h 6.9mph /  11.1km/h 65% 0in /  0.0mm 0 W/m2
19:07 69.6 °F /  20.9 °C 57.7 °F /  14.3 °C 29.7in /  1005.0hPa North 1.6mph /  2.6km/h 6.9mph /  11.1km/h 66% 0in /  0.0mm 0 W/m2
19:12 69.4 °F /  20.8 °C 57.9 °F /  14.4 °C 29.7in /  1005.0hPa North 1.6mph /  2.6km/h 7.6mph /  12.2km/h 67% 0in /  0.0mm 0 W/m2
19:17 69.8 °F /  21.0 °C 57.9 °F /  14.4 °C 29.7in /  1005.0hPa North 4.5mph /  7.2km/h 10.7mph /  17.2km/h 66% 0in /  0.0mm 0 W/m2
19:22 70.2 °F /  21.2 °C 58.3 °F /  14.6 °C 29.7in /  1005.0hPa North 6.9mph /  11.1km/h 13mph /  20.9km/h 66% 0in /  0.0mm 0 W/m2
19:27 70.7 °F /  21.5 °C 58.5 °F /  14.7 °C 29.7in /  1005.0hPa NNW 6.9mph /  11.1km/h 15.9mph /  25.6km/h 65% 0in /  0.0mm 0 W/m2
19:32 70.9 °F /  21.6 °C 58.6 °F /  14.8 °C 29.7in /  1005.0hPa NW 13.6mph /  21.9km/h 19.7mph /  31.7km/h 65% 0in /  0.0mm 0 W/m2
19:37 70.9 °F /  21.6 °C 58.6 °F /  14.8 °C 29.7in /  1005.0hPa NW 13mph /  20.9km/h 21.3mph /  34.3km/h 65% 0in /  0.0mm 0 W/m2
19:42 70.9 °F /  21.6 °C 58.6 °F /  14.8 °C 29.7in /  1005.0hPa NNW 8.3mph /  13.4km/h 21.3mph /  34.3km/h 65% 0in /  0.0mm 0 W/m2
19:47 70.7 °F /  21.5 °C 58.5 °F /  14.7 °C 29.7in /  1005.3hPa NNW 6.9mph /  11.1km/h 21.3mph /  34.3km/h 65% 0in /  0.0mm 0 W/m2
19:52 70.2 °F /  21.2 °C 58.3 °F /  14.6 °C 29.7in /  1005.0hPa NNW 6.9mph /  11.1km/h 16.8mph /  27.0km/h 66% 0in /  0.0mm 0 W/m2
19:57 69.8 °F /  21.0 °C 58.5 °F /  14.7 °C 29.7in /  1005.3hPa NNW 4.5mph /  7.2km/h 13mph /  20.9km/h 67% 0in /  0.0mm 0 W/m2
20:02 69.4 °F /  20.8 °C 58.8 °F /  14.9 °C 29.7in /  1005.3hPa NNW 3.8mph /  6.1km/h 9.8mph /  15.8km/h 69% 0in /  0.0mm 0 W/m2
20:07 69.1 °F /  20.6 °C 58.8 °F /  14.9 °C 29.7in /  1005.3hPa NW 4.5mph /  7.2km/h 9.2mph /  14.8km/h 70% 0in /  0.0mm 0 W/m2
20:12 68.5 °F /  20.3 °C 58.8 °F /  14.9 °C 29.7in /  1005.3hPa NW 3.8mph /  6.1km/h 10.7mph /  17.2km/h 71% 0in /  0.0mm 0 W/m2
20:17 68.5 °F /  20.3 °C 59.2 °F /  15.1 °C 29.7in /  1005.3hPa NNW 3.8mph /  6.1km/h 10.7mph /  17.2km/h 72% 0in /  0.0mm 0 W/m2
20:22 68.5 °F /  20.3 °C 59.5 °F /  15.3 °C 29.7in /  1005.6hPa NNW 9.2mph /  14.8km/h 14.5mph /  23.3km/h 73% 0in /  0.0mm 0 W/m2
20:27 68.5 °F /  20.3 °C 59.9 °F /  15.5 °C 29.7in /  1005.6hPa NNW 9.8mph /  15.8km/h 19.7mph /  31.7km/h 74% 0in /  0.0mm 0 W/m2
20:32 68.5 °F /  20.3 °C 60.6 °F /  15.9 °C 29.7in /  1005.6hPa NNW 8.3mph /  13.4km/h 19.7mph /  31.7km/h 76% 0in /  0.0mm 0 W/m2
20:37 68 °F /  20.0 °C 61 °F /  16.1 °C 29.7in /  1005.6hPa NW 5.4mph /  8.7km/h 15.9mph /  25.6km/h 78% 0in /  0.0mm 0 W/m2
20:42 67.5 °F /  19.7 °C 61.9 °F /  16.6 °C 29.7in /  1006.0hPa NNW 3.1mph /  5.0km/h 12.1mph /  19.5km/h 82% 0in /  0.0mm 0 W/m2
20:47 66.9 °F /  19.4 °C 62.1 °F /  16.7 °C 29.7in /  1006.0hPa NNW 2.2mph /  3.5km/h 9.2mph /  14.8km/h 84% 0in /  0.0mm 0 W/m2
20:52 66.7 °F /  19.3 °C 61.9 °F /  16.6 °C 29.7in /  1005.6hPa NNW 1.6mph /  2.6km/h 6.9mph /  11.1km/h 84% 0in /  0.0mm 0 W/m2
20:57 66.4 °F /  19.1 °C 61.9 °F /  16.6 °C 29.7in /  1005.6hPa Calm   6.9mph /  11.1km/h 85% 0in /  0.0mm 0 W/m2
21:02 65.8 °F /  18.8 °C 61.5 °F /  16.4 °C 29.7in /  1005.6hPa North 1.6mph /  2.6km/h 4.5mph /  7.2km/h 86% 0in /  0.0mm 0 W/m2
21:07 65.5 °F /  18.6 °C 61.5 °F /  16.4 °C 29.7in /  1005.6hPa North 1.6mph /  2.6km/h 4.5mph /  7.2km/h 87% 0in /  0.0mm 0 W/m2
21:12 65.1 °F /  18.4 °C 61.5 °F /  16.4 °C 29.7in /  1005.6hPa North 1.6mph /  2.6km/h 4.5mph /  7.2km/h 88% 0in /  0.0mm 0 W/m2
21:17 64.8 °F /  18.2 °C 61.2 °F /  16.2 °C 29.7in /  1005.6hPa North 1.6mph /  2.6km/h 4.5mph /  7.2km/h 88% 0in /  0.0mm 0 W/m2
21:22 64.4 °F /  18.0 °C 61.2 °F /  16.2 °C 29.7in /  1005.6hPa NNW 0.7mph /  1.1km/h 3.1mph /  5.0km/h 89% 0in /  0.0mm 0 W/m2
21:27 64.2 °F /  17.9 °C 61 °F /  16.1 °C 29.7in /  1005.6hPa North 2.2mph /  3.5km/h 4.5mph /  7.2km/h 89% 0in /  0.0mm 0 W/m2
21:32 64.9 °F /  18.3 °C 61.5 °F /  16.4 °C 29.7in /  1005.6hPa North 2.2mph /  3.5km/h 7.6mph /  12.2km/h 89% 0in /  0.0mm 0 W/m2
21:37 65.7 °F /  18.7 °C 62.1 °F /  16.7 °C 29.7in /  1005.6hPa North 4.5mph /  7.2km/h 9.8mph /  15.8km/h 88% 0in /  0.0mm 0 W/m2
21:42 66 °F /  18.9 °C 62.1 °F /  16.7 °C 29.7in /  1006.0hPa North 2.2mph /  3.5km/h 9.8mph /  15.8km/h 87% 0in /  0.0mm 0 W/m2
21:47 66 °F /  18.9 °C 62.1 °F /  16.7 °C 29.7in /  1006.0hPa NNE 2.2mph /  3.5km/h 9.2mph /  14.8km/h 87% 0in /  0.0mm 0 W/m2
21:52 66.2 °F /  19.0 °C 61.9 °F /  16.6 °C 29.7in /  1006.0hPa Calm   9.2mph /  14.8km/h 86% 0in /  0.0mm 0 W/m2
21:57 66 °F /  18.9 °C 62.1 °F /  16.7 °C 29.7in /  1006.0hPa North 1.6mph /  2.6km/h 8.3mph /  13.4km/h 87% 0in /  0.0mm 0 W/m2
22:02 65.8 °F /  18.8 °C 61.9 °F /  16.6 °C 29.7in /  1006.0hPa Calm   6mph /  9.7km/h 87% 0in /  0.0mm 0 W/m2
22:07 65.8 °F /  18.8 °C 61.9 °F /  16.6 °C 29.7in /  1006.0hPa Calm   3.8mph /  6.1km/h 87% 0in /  0.0mm 0 W/m2
22:12 65.7 °F /  18.7 °C 61.7 °F /  16.5 °C 29.7in /  1006.0hPa Calm   3.1mph /  5.0km/h 87% 0in /  0.0mm 0 W/m2
22:17 65.5 °F /  18.6 °C 61.5 °F /  16.4 °C 29.7in /  1006.0hPa Calm   0.7mph /  1.1km/h 87% 0in /  0.0mm 0 W/m2
22:22 65.3 °F /  18.5 °C 61.3 °F /  16.3 °C 29.7in /  1006.0hPa Calm   0.7mph /  1.1km/h 87% 0in /  0.0mm 0 W/m2
22:27 65.1 °F /  18.4 °C 61.5 °F /  16.4 °C 29.7in /  1006.0hPa NW 1.6mph /  2.6km/h 3.1mph /  5.0km/h 88% 0in /  0.0mm 0 W/m2
22:32 64.8 °F /  18.2 °C 61.2 °F /  16.2 °C 29.7in /  1005.6hPa Calm   3.1mph /  5.0km/h 88% 0in /  0.0mm 0 W/m2
22:37 64.4 °F /  18.0 °C 60.8 °F /  16.0 °C 29.7in /  1005.6hPa Calm   2.2mph /  3.5km/h 88% 0in /  0.0mm 0 W/m2
22:42 64.2 °F /  17.9 °C 60.3 °F /  15.7 °C 29.7in /  1005.6hPa Calm   1.6mph /  2.6km/h 87% 0in /  0.0mm 0 W/m2
22:47 64.6 °F /  18.1 °C 60.3 °F /  15.7 °C 29.7in /  1005.6hPa North 2.2mph /  3.5km/h 3.8mph /  6.1km/h 86% 0in /  0.0mm 0 W/m2
22:52 65.3 °F /  18.5 °C 60.4 °F /  15.8 °C 29.7in /  1005.3hPa North 1.6mph /  2.6km/h 6mph /  9.7km/h 84% 0in /  0.0mm 0 W/m2
22:57 65.8 °F /  18.8 °C 59.9 °F /  15.5 °C 29.7in /  1005.6hPa North 0.7mph /  1.1km/h 6mph /  9.7km/h 81% 0in /  0.0mm 0 W/m2
23:02 65.8 °F /  18.8 °C 59.2 °F /  15.1 °C 29.7in /  1005.6hPa Calm   5.4mph /  8.7km/h 79% 0in /  0.0mm 0 W/m2
23:07 65.7 °F /  18.7 °C 59 °F /  15.0 °C 29.7in /  1005.6hPa Calm   3.8mph /  6.1km/h 79% 0in /  0.0mm 0 W/m2
23:12 64.9 °F /  18.3 °C 59 °F /  15.0 °C 29.7in /  1005.6hPa Calm   2.2mph /  3.5km/h 81% 0in /  0.0mm 0 W/m2
23:17 64.4 °F /  18.0 °C 59.2 °F /  15.1 °C 29.7in /  1006.0hPa Calm   2.2mph /  3.5km/h 83% 0in /  0.0mm 0 W/m2
23:22 64 °F /  17.8 °C 59.2 °F /  15.1 °C 29.7in /  1005.6hPa Calm   2.2mph /  3.5km/h 84% 0in /  0.0mm 0 W/m2
23:27 63.7 °F /  17.6 °C 58.8 °F /  14.9 °C 29.7in /  1005.6hPa Calm     84% 0in /  0.0mm 0 W/m2
23:32 63.1 °F /  17.3 °C 58.6 °F /  14.8 °C 29.7in /  1005.6hPa Calm     85% 0in /  0.0mm 0 W/m2
23:37 62.8 °F /  17.1 °C 58.5 °F /  14.7 °C 29.7in /  1005.6hPa Calm     86% 0in /  0.0mm 0 W/m2
23:42 62.6 °F /  17.0 °C 58.6 °F /  14.8 °C 29.7in /  1005.6hPa Calm     87% 0in /  0.0mm 0 W/m2
23:47 62.4 °F /  16.9 °C 59.2 °F /  15.1 °C 29.7in /  1005.6hPa Calm     89% 0in /  0.0mm 0 W/m2
23:52 62.2 °F /  16.8 °C 59 °F /  15.0 °C 29.7in /  1005.6hPa Calm     89% 0in /  0.0mm 0 W/m2
23:57 62.1 °F /  16.7 °C 58.8 °F /  14.9 °C 29.7in /  1005.6hPa Calm     89% 0in /  0.0mm 0 W/m2
Northern Hawkes Bay. New Zealand Historic Data
Compliments of Weather Underground - 2 mb